createdAt,value
2022-09-12T00:02:41.638Z,14.00
2022-09-12T00:07:43.880Z,13.85
2022-09-12T00:12:46.062Z,14.02
2022-09-12T00:17:48.126Z,14.21
2022-09-12T00:22:50.206Z,13.93
2022-09-12T00:27:52.638Z,14.17
2022-09-12T00:32:55.073Z,14.04
2022-09-12T00:37:57.189Z,14.28
2022-09-12T00:42:59.299Z,14.46
2022-09-12T00:48:04.601Z,14.27
2022-09-12T00:53:09.238Z,14.12
2022-09-12T00:58:20.587Z,14.40
2022-09-12T01:03:24.126Z,14.44
2022-09-12T01:08:27.615Z,14.23
2022-09-12T01:13:30.440Z,14.28
2022-09-12T01:19:01.942Z,13.80
2022-09-12T01:24:10.143Z,14.12
2022-09-12T01:29:31.020Z,13.73
2022-09-12T01:34:46.350Z,13.56
2022-09-12T01:40:17.315Z,13.67
2022-09-12T01:45:33.744Z,13.61
2022-09-12T01:50:42.546Z,13.75
2022-09-12T01:55:51.801Z,13.84
2022-09-12T02:01:03.210Z,13.92
2022-09-12T02:06:47.587Z,13.90
2022-09-12T02:11:52.736Z,13.95
2022-09-12T02:17:05.320Z,14.18
2022-09-12T02:22:12.379Z,14.04
2022-09-12T02:27:20.008Z,13.79
2022-09-12T02:32:51.766Z,13.68
2022-09-12T02:38:09.739Z,13.73
2022-09-12T02:43:12.081Z,13.76
2022-09-12T02:48:21.660Z,13.59
2022-09-12T02:53:24.639Z,13.88
2022-09-12T02:58:31.754Z,13.64
2022-09-12T03:04:08.147Z,14.01
2022-09-12T03:09:26.852Z,13.79
2022-09-12T03:14:50.929Z,13.92
2022-09-12T03:20:37.704Z,13.98
2022-09-12T03:25:52.167Z,13.84
2022-09-12T03:30:56.676Z,13.82
2022-09-12T03:35:59.120Z,13.95
2022-09-12T03:41:01.449Z,14.22
2022-09-12T03:46:03.733Z,14.33
2022-09-12T03:51:08.506Z,14.36
2022-09-12T03:56:13.892Z,14.22
2022-09-12T04:01:18.362Z,14.50
2022-09-12T04:06:23.211Z,14.60
2022-09-12T04:11:25.649Z,14.34
2022-09-12T04:16:28.013Z,14.36
2022-09-12T04:21:30.215Z,14.22
2022-09-12T04:26:32.336Z,14.32
2022-09-12T04:31:34.608Z,14.70
2022-09-12T04:36:37.459Z,14.52
2022-09-12T04:41:42.126Z,14.36
2022-09-12T04:46:46.935Z,14.46
2022-09-12T04:51:49.447Z,14.61
2022-09-12T04:56:52.755Z,14.58
2022-09-12T05:01:55.129Z,14.74
2022-09-12T05:06:57.492Z,14.61
2022-09-12T05:12:04.650Z,14.50
2022-09-12T05:17:07.616Z,14.64
2022-09-12T05:22:10.120Z,14.85
2022-09-12T05:27:12.208Z,15.02
2022-09-12T05:32:14.418Z,15.24
2022-09-12T05:37:16.634Z,15.22
2022-09-12T05:42:18.837Z,15.11
2022-09-12T05:47:21.214Z,18.84
2022-09-12T05:52:27.810Z,25.94
2022-09-12T05:57:30.044Z,28.67
2022-09-12T06:02:35.158Z,29.61
2022-09-12T06:07:37.882Z,31.06
2022-09-12T06:12:40.264Z,31.52
2022-09-12T06:17:42.384Z,30.89
2022-09-12T06:22:44.618Z,32.33
2022-09-12T06:27:47.813Z,31.64
2022-09-12T06:32:50.026Z,31.82
2022-09-12T06:37:52.533Z,27.00
2022-09-12T06:42:54.816Z,29.48
2022-09-12T06:48:13.357Z,31.58
2022-09-12T06:53:15.585Z,32.39
2022-09-12T06:58:17.704Z,31.71
2022-09-12T07:03:19.921Z,31.73
2022-09-12T07:08:22.422Z,29.91
2022-09-12T07:13:24.816Z,29.10
2022-09-12T07:18:27.479Z,27.76
2022-09-12T07:23:30.598Z,25.97
2022-09-12T07:28:34.835Z,25.03
2022-09-12T07:33:37.961Z,25.23
2022-09-12T07:38:40.787Z,26.78
2022-09-12T07:43:43.033Z,26.00
2022-09-12T07:48:46.134Z,25.71
2022-09-12T07:53:49.432Z,25.25
2022-09-12T07:58:51.697Z,24.91
2022-09-12T08:03:57.159Z,24.27
2022-09-12T08:09:00.261Z,24.53
2022-09-12T08:14:05.894Z,25.92
2022-09-12T08:19:08.266Z,25.15
2022-09-12T08:24:13.211Z,25.21
2022-09-12T08:29:15.678Z,25.06
2022-09-12T08:34:19.426Z,24.00
2022-09-12T08:39:22.362Z,24.18
2022-09-12T08:44:45.261Z,24.48
2022-09-12T08:50:12.340Z,25.55
2022-09-12T08:55:34.651Z,24.14
2022-09-12T09:01:07.566Z,26.15
2022-09-12T09:06:42.529Z,25.97
2022-09-12T09:12:12.499Z,26.40
2022-09-12T09:17:29.290Z,23.66
2022-09-12T09:22:43.762Z,25.58
2022-09-12T09:28:11.902Z,24.84
2022-09-12T09:33:26.748Z,25.25
2022-09-12T09:38:42.633Z,24.12
2022-09-12T09:43:45.262Z,24.62
2022-09-12T09:48:51.612Z,23.30
2022-09-12T09:54:02.125Z,24.29
2022-09-12T09:59:16.424Z,26.16
2022-09-12T10:04:32.757Z,25.74
2022-09-12T10:09:36.604Z,23.99
2022-09-12T10:14:41.415Z,24.74
2022-09-12T10:19:45.545Z,25.46
2022-09-12T10:25:01.694Z,25.62
2022-09-12T10:30:15.933Z,26.26
2022-09-12T10:35:24.911Z,23.92
2022-09-12T10:40:31.951Z,24.71
2022-09-12T10:45:37.918Z,24.07
2022-09-12T10:50:42.586Z,23.15
2022-09-12T10:56:09.146Z,24.51
2022-09-12T11:01:46.222Z,24.06
2022-09-12T11:07:26.027Z,22.99
2022-09-12T11:12:50.012Z,23.45
2022-09-12T11:18:25.155Z,23.82
2022-09-12T11:24:03.050Z,23.70
2022-09-12T11:29:36.249Z,23.51
2022-09-12T11:34:47.827Z,23.66
2022-09-12T11:39:55.635Z,23.78
2022-09-12T11:45:16.575Z,23.69
2022-09-12T11:50:27.190Z,23.09
2022-09-12T11:55:39.957Z,23.21
2022-09-12T12:00:47.470Z,23.12
2022-09-12T12:06:03.274Z,23.28
2022-09-12T12:11:08.336Z,22.05
2022-09-12T12:16:22.102Z,21.92
2022-09-12T12:21:46.700Z,21.98
2022-09-12T12:26:59.046Z,21.91
2022-09-12T12:32:04.402Z,22.56
2022-09-12T12:37:22.196Z,22.75
2022-09-12T12:42:34.018Z,22.42
2022-09-12T12:47:36.272Z,22.12
2022-09-12T12:53:25.507Z,21.83
2022-09-12T12:58:42.927Z,21.83
2022-09-12T13:03:53.925Z,21.92
2022-09-12T13:09:09.715Z,21.31
2022-09-12T13:14:43.118Z,22.21
2022-09-12T13:19:47.533Z,21.80
2022-09-12T13:24:53.811Z,21.67
2022-09-12T13:30:13.947Z,21.43
2022-09-12T13:35:42.858Z,21.75
2022-09-12T13:41:15.841Z,21.41
2022-09-12T13:46:46.556Z,20.86
2022-09-12T13:52:18.674Z,21.25
2022-09-12T13:58:00.215Z,21.80
2022-09-12T14:03:56.742Z,21.67
2022-09-12T14:09:01.678Z,21.84
2022-09-12T14:14:18.852Z,21.86
2022-09-12T14:19:25.100Z,21.65
2022-09-12T14:24:27.827Z,21.42
2022-09-12T14:29:31.363Z,20.93
2022-09-12T14:34:33.688Z,21.13
2022-09-12T14:39:46.033Z,21.29
2022-09-12T14:44:59.318Z,21.19
2022-09-12T14:50:01.850Z,21.09
2022-09-12T14:55:22.212Z,21.27
2022-09-12T15:00:27.430Z,21.17
2022-09-12T15:05:30.484Z,21.13
2022-09-12T15:10:37.912Z,21.20
2022-09-12T15:15:42.306Z,20.76
2022-09-12T15:20:46.640Z,21.22
2022-09-12T15:25:49.089Z,20.68
2022-09-12T15:30:53.644Z,20.74
2022-09-12T15:35:56.096Z,20.84
2022-09-12T15:40:58.216Z,21.14
2022-09-12T15:46:04.704Z,21.03
2022-09-12T15:51:15.250Z,20.77
2022-09-12T15:56:21.379Z,20.65
2022-09-12T16:01:23.951Z,20.47
2022-09-12T16:06:27.973Z,20.22
2022-09-12T16:11:30.310Z,20.19
2022-09-12T16:16:32.898Z,19.99
2022-09-12T16:21:38.403Z,19.77
2022-09-12T16:26:40.869Z,19.27
2022-09-12T16:31:46.232Z,19.46
2022-09-12T16:36:48.546Z,19.37
2022-09-12T16:42:27.604Z,19.51
2022-09-12T16:47:32.511Z,18.77
2022-09-12T16:52:35.541Z,18.88
2022-09-12T16:57:38.291Z,18.88
2022-09-12T17:02:40.720Z,18.47
2022-09-12T17:07:43.137Z,18.44
2022-09-12T17:12:45.406Z,17.87
2022-09-12T17:17:47.839Z,18.05
2022-09-12T17:22:50.001Z,17.80
2022-09-12T17:27:52.217Z,17.93
2022-09-12T17:32:54.657Z,17.72
2022-09-12T17:37:56.858Z,17.84
2022-09-12T17:42:59.289Z,17.45
2022-09-12T17:48:03.102Z,16.88
2022-09-12T17:53:07.100Z,16.83
2022-09-12T17:58:11.274Z,16.50
2022-09-12T18:03:17.991Z,16.18
2022-09-12T18:08:26.235Z,16.05
2022-09-12T18:13:29.863Z,15.54
2022-09-12T18:18:38.188Z,16.06
2022-09-12T18:23:40.531Z,16.27
2022-09-12T18:28:44.396Z,16.46
2022-09-12T18:33:46.921Z,16.29
2022-09-12T18:38:49.481Z,15.37
2022-09-12T18:44:02.759Z,15.82
2022-09-12T18:49:05.020Z,15.99
2022-09-12T18:54:13.162Z,16.41
2022-09-12T18:59:33.882Z,16.54
2022-09-12T19:04:37.223Z,16.54
2022-09-12T19:09:39.730Z,16.63
2022-09-12T19:14:41.872Z,16.57
2022-09-12T19:19:44.357Z,16.24
2022-09-12T19:24:46.645Z,16.44
2022-09-12T19:29:49.176Z,16.23
2022-09-12T19:34:51.511Z,16.49
2022-09-12T19:39:53.721Z,16.19
2022-09-12T19:44:56.183Z,15.80
2022-09-12T19:49:58.535Z,16.01
2022-09-12T19:55:00.645Z,15.99
2022-09-12T20:00:05.945Z,15.93
2022-09-12T20:05:10.937Z,15.77
2022-09-12T20:10:44.070Z,15.54
2022-09-12T20:15:55.712Z,15.79
2022-09-12T20:20:58.367Z,15.60
2022-09-12T20:26:05.017Z,15.63
2022-09-12T20:31:15.626Z,15.92
2022-09-12T20:36:20.771Z,15.78
2022-09-12T20:41:23.931Z,15.86
2022-09-12T20:46:28.347Z,15.69
2022-09-12T20:51:30.869Z,15.58
2022-09-12T20:56:35.854Z,15.61
2022-09-12T21:01:38.170Z,15.78
2022-09-12T21:06:41.086Z,15.76
2022-09-12T21:11:43.268Z,15.80
2022-09-12T21:16:45.415Z,15.26
2022-09-12T21:21:48.011Z,15.66
2022-09-12T21:26:50.345Z,15.30
2022-09-12T21:31:52.643Z,15.26
2022-09-12T21:36:54.784Z,15.79
2022-09-12T21:41:57.238Z,15.73
2022-09-12T21:46:59.530Z,15.72
2022-09-12T21:52:02.096Z,15.83
2022-09-12T21:57:04.686Z,16.11
2022-09-12T22:02:08.887Z,16.12
2022-09-12T22:07:11.344Z,16.13
2022-09-12T22:12:13.919Z,16.14
2022-09-12T22:17:16.651Z,15.86
2022-09-12T22:22:37.175Z,15.93
2022-09-12T22:27:39.660Z,16.10
2022-09-12T22:32:42.042Z,16.00
2022-09-12T22:37:44.931Z,15.97
2022-09-12T22:42:47.163Z,16.03
2022-09-12T22:47:49.740Z,15.87
2022-09-12T22:52:53.262Z,15.98
2022-09-12T22:57:55.620Z,15.50
2022-09-12T23:02:58.582Z,15.53
2022-09-12T23:08:01.095Z,15.63
2022-09-12T23:13:03.802Z,15.53
2022-09-12T23:18:06.188Z,15.55
2022-09-12T23:23:08.443Z,15.44
2022-09-12T23:28:10.569Z,15.18
2022-09-12T23:33:12.654Z,15.21
2022-09-12T23:38:16.199Z,15.17
2022-09-12T23:43:18.488Z,15.26
2022-09-12T23:48:20.745Z,15.20
2022-09-12T23:53:24.059Z,15.18
2022-09-12T23:58:26.491Z,15.24
